createdAt,value
2023-04-05T05:14:17.776Z,61.21
2023-04-05T05:16:46.331Z,61.03
2023-04-05T05:19:16.501Z,61.19
2023-04-05T05:21:50.200Z,60.45
2023-04-05T05:24:22.191Z,60.43
2023-04-05T05:26:51.917Z,60.21
2023-04-05T05:29:21.981Z,59.41
2023-04-05T05:31:51.186Z,59.49
2023-04-05T05:34:19.571Z,59.41
2023-04-05T05:37:01.879Z,59.15
2023-04-05T05:39:30.317Z,58.84
2023-04-05T05:41:58.963Z,58.75
2023-04-05T05:44:27.097Z,58.75
2023-04-05T05:46:58.491Z,59.28
2023-04-05T05:49:27.361Z,59.89
2023-04-05T05:51:59.144Z,60.73
2023-04-05T05:54:27.802Z,60.63
2023-04-05T05:56:57.132Z,60.70
2023-04-05T05:59:25.679Z,60.28
2023-04-05T06:01:55.257Z,60.14
2023-04-05T06:04:24.847Z,60.08
2023-04-05T06:06:55.184Z,60.24
2023-04-05T06:09:31.114Z,60.54
2023-04-05T06:11:59.935Z,60.63
2023-04-05T06:14:30.053Z,60.59
2023-04-05T06:17:01.122Z,61.32
2023-04-05T06:19:29.572Z,61.82
2023-04-05T06:21:57.677Z,62.34
2023-04-05T06:24:26.614Z,61.71
2023-04-05T06:26:55.546Z,60.65
2023-04-05T06:29:25.260Z,59.96
2023-04-05T06:31:54.388Z,58.82
2023-04-05T06:34:23.053Z,58.51
2023-04-05T06:36:56.548Z,57.77
2023-04-05T06:39:24.619Z,57.43
2023-04-05T06:41:54.212Z,57.17
2023-04-05T06:44:26.924Z,56.91
2023-04-05T06:47:00.119Z,57.22
2023-04-05T06:49:28.805Z,57.24
2023-04-05T06:51:57.290Z,56.79
2023-04-05T06:54:25.565Z,56.54
2023-04-05T06:56:53.814Z,56.85
2023-04-05T06:59:21.929Z,57.06
2023-04-05T07:01:50.745Z,57.42
2023-04-05T07:04:19.097Z,57.47
2023-04-05T07:06:47.709Z,57.64
2023-04-05T07:09:18.426Z,59.08
2023-04-05T07:11:47.812Z,58.72
2023-04-05T07:14:15.950Z,57.57
2023-04-05T07:16:52.607Z,57.20
2023-04-05T07:19:20.987Z,55.67
2023-04-05T07:21:49.464Z,54.48
2023-04-05T07:24:19.269Z,54.75
2023-04-05T07:26:48.179Z,55.02
2023-04-05T07:29:17.879Z,55.61
2023-04-05T07:31:47.091Z,56.62
2023-04-05T07:34:15.536Z,57.70
2023-04-05T07:36:43.858Z,58.16
2023-04-05T07:39:12.846Z,57.82
2023-04-05T07:41:42.790Z,57.00
2023-04-05T07:44:17.298Z,56.61
2023-04-05T07:46:49.133Z,56.44
2023-04-05T07:49:17.655Z,56.80
2023-04-05T07:51:48.484Z,57.42
2023-04-05T07:54:16.777Z,57.15
2023-04-05T07:56:51.451Z,56.94
2023-04-05T07:59:19.944Z,56.79
2023-04-05T08:01:48.258Z,56.72
2023-04-05T08:04:17.265Z,57.20
2023-04-05T08:06:46.160Z,57.16
2023-04-05T08:09:14.697Z,56.97
2023-04-05T08:11:43.845Z,57.32
2023-04-05T08:14:12.573Z,57.06
2023-04-05T08:16:40.828Z,56.68
2023-04-05T08:19:09.070Z,56.82
2023-04-05T08:21:37.482Z,56.99
2023-04-05T08:24:06.153Z,57.04
2023-04-05T08:26:34.425Z,57.23
2023-04-05T08:29:05.397Z,56.61
2023-04-05T08:31:34.275Z,56.55
2023-04-05T08:34:03.187Z,56.49
2023-04-05T08:36:35.156Z,56.97
2023-04-05T08:39:03.507Z,56.83
2023-04-05T08:41:36.729Z,56.98
2023-04-05T08:44:08.499Z,57.15
2023-04-05T08:46:36.566Z,56.78
2023-04-05T08:49:07.343Z,56.36
2023-04-05T08:51:39.702Z,56.59
2023-04-05T08:54:10.084Z,55.93
2023-04-05T08:56:38.273Z,55.96
2023-04-05T08:59:12.060Z,55.35
2023-04-05T09:01:44.271Z,55.56
2023-04-05T09:04:30.266Z,55.48
2023-04-05T09:06:59.459Z,55.29
2023-04-05T09:09:29.120Z,54.95
2023-04-05T09:12:17.944Z,54.26
2023-04-05T09:14:46.330Z,54.72
2023-04-05T09:17:21.486Z,55.20
2023-04-05T09:19:50.589Z,55.89
2023-04-05T09:22:19.233Z,56.40
2023-04-05T09:24:47.708Z,56.15
2023-04-05T09:27:19.902Z,55.89
2023-04-05T09:29:55.463Z,56.13
2023-04-05T09:32:26.234Z,56.88
2023-04-05T09:34:54.546Z,56.39
2023-04-05T09:37:29.678Z,56.37
2023-04-05T09:40:05.487Z,56.45
2023-04-05T09:42:48.054Z,56.53
2023-04-05T09:45:18.441Z,56.28
2023-04-05T09:47:58.074Z,56.37
2023-04-05T09:50:27.307Z,56.52
2023-04-05T09:53:10.767Z,55.12
2023-04-05T09:55:40.707Z,55.53
2023-04-05T09:58:19.415Z,54.88
2023-04-05T10:01:03.268Z,54.91
2023-04-05T10:14:03.886Z,53.52
2023-04-05T10:16:34.722Z,51.84
2023-04-05T10:19:03.337Z,52.14
2023-04-05T10:21:37.448Z,51.92
2023-04-05T10:24:08.004Z,51.14
2023-04-05T10:27:06.425Z,50.99
2023-04-05T10:30:04.858Z,50.86
2023-04-05T10:32:44.640Z,51.03
2023-04-05T10:35:17.136Z,50.88
2023-04-05T10:38:17.863Z,50.98
2023-04-05T10:40:47.964Z,51.17
2023-04-05T10:43:23.903Z,51.13
2023-04-05T10:45:53.520Z,51.47
2023-04-05T10:48:35.090Z,51.46
2023-04-05T10:51:05.137Z,51.24
2023-04-05T10:53:34.110Z,50.95
2023-04-05T10:56:02.538Z,51.49
2023-04-05T10:58:31.142Z,51.26
2023-04-05T11:00:59.662Z,48.09
2023-04-05T11:03:51.883Z,48.09
2023-04-05T11:06:25.537Z,47.88
2023-04-05T11:09:18.201Z,47.41
2023-04-05T11:11:51.513Z,47.41
2023-04-05T11:14:41.154Z,47.12
2023-04-05T11:17:25.848Z,46.95
2023-04-05T11:20:05.125Z,47.42
2023-04-05T11:22:33.449Z,47.76
2023-04-05T11:25:03.466Z,47.90
2023-04-05T11:27:34.135Z,48.25
2023-04-05T11:30:03.071Z,48.73
2023-04-05T11:32:43.592Z,49.02
2023-04-05T11:35:17.936Z,48.90
2023-04-05T11:38:01.714Z,48.79
2023-04-05T11:40:31.696Z,48.81
2023-04-05T11:43:10.295Z,48.68
2023-04-05T11:45:39.344Z,49.69
2023-04-05T11:48:09.195Z,49.73
2023-04-05T11:50:38.613Z,49.78
2023-04-05T11:53:19.711Z,49.80
2023-04-05T11:55:53.535Z,49.40
2023-04-05T11:58:24.045Z,49.61
2023-04-05T12:01:02.418Z,49.94
2023-04-05T12:03:34.391Z,50.63
2023-04-05T12:06:04.293Z,50.89
2023-04-05T12:08:42.926Z,49.96
2023-04-05T12:11:23.504Z,47.85
2023-04-05T12:13:56.400Z,46.65
2023-04-05T12:16:24.846Z,46.35
2023-04-05T12:18:54.589Z,46.78
2023-04-05T12:21:23.321Z,46.62
2023-04-05T12:23:55.458Z,46.51
2023-04-05T12:26:23.882Z,46.82
2023-04-05T12:29:00.411Z,46.99
2023-04-05T12:31:37.986Z,47.27
2023-04-05T12:34:06.800Z,47.44
2023-04-05T12:36:35.078Z,47.80
2023-04-05T12:39:06.563Z,48.19
2023-04-05T12:41:35.329Z,48.46
2023-04-05T12:44:12.488Z,48.82
2023-04-05T12:46:41.323Z,49.67
2023-04-05T12:49:16.619Z,50.14
2023-04-05T12:51:48.166Z,50.93
2023-04-05T12:54:23.818Z,51.43
2023-04-05T12:56:54.546Z,52.38
2023-04-05T12:59:23.357Z,54.22
2023-04-05T13:01:52.390Z,56.30
2023-04-05T13:04:23.220Z,58.39
2023-04-05T13:06:55.247Z,58.56
2023-04-05T13:09:23.756Z,58.63
2023-04-05T13:11:52.153Z,59.04
2023-04-05T13:14:20.337Z,59.17
2023-04-05T13:16:48.850Z,59.14
2023-04-05T13:19:17.104Z,59.71
2023-04-05T13:21:47.134Z,59.97
2023-04-05T13:24:15.503Z,59.66
2023-04-05T13:26:45.318Z,59.97
2023-04-05T13:29:13.535Z,59.61
2023-04-05T13:31:41.993Z,59.50
2023-04-05T13:34:11.699Z,60.05
2023-04-05T13:36:39.961Z,60.52
2023-04-05T13:39:08.274Z,61.29
2023-04-05T13:41:38.276Z,61.91
2023-04-05T13:44:06.932Z,61.77
2023-04-05T13:46:36.182Z,61.49
2023-04-05T13:49:04.371Z,61.83
2023-04-05T13:51:34.692Z,61.94
2023-04-05T13:54:05.205Z,62.84
2023-04-05T13:56:34.785Z,62.78
2023-04-05T13:59:04.678Z,63.28
2023-04-05T14:01:36.437Z,63.11
2023-04-05T14:04:04.879Z,63.71
2023-04-05T14:06:34.594Z,64.36
2023-04-05T14:09:02.874Z,66.01
2023-04-05T14:11:32.595Z,66.80
2023-04-05T14:14:01.482Z,66.86
2023-04-05T14:16:30.615Z,66.33
2023-04-05T14:18:58.976Z,66.69
2023-04-05T14:21:27.668Z,67.77
2023-04-05T14:23:57.149Z,68.02
2023-04-05T14:26:26.291Z,68.50
2023-04-05T14:28:54.854Z,69.48
2023-04-05T14:31:26.603Z,69.60
2023-04-05T14:33:55.654Z,70.35
2023-04-05T14:36:23.903Z,70.63
2023-04-05T14:38:56.670Z,71.06
2023-04-05T14:41:27.301Z,71.85
2023-04-05T14:43:55.559Z,72.56
2023-04-05T14:46:24.215Z,74.01
2023-04-05T14:48:52.867Z,75.47
2023-04-05T14:51:21.044Z,75.87
2023-04-05T14:53:49.590Z,77.06
2023-04-05T14:56:19.916Z,77.60
2023-04-05T14:58:48.559Z,77.12
2023-04-05T15:01:16.748Z,77.81
2023-04-05T15:03:48.292Z,77.94
2023-04-05T15:06:16.714Z,77.85
2023-04-05T15:08:44.950Z,78.47
2023-04-05T15:11:13.278Z,78.68
2023-04-05T15:13:41.775Z,78.58
2023-04-05T15:16:10.820Z,79.24
2023-04-05T15:18:39.705Z,79.48
2023-04-05T15:21:08.209Z,79.52
2023-04-05T15:23:40.892Z,80.19
2023-04-05T15:26:09.173Z,80.97
2023-04-05T15:28:37.439Z,81.05
2023-04-05T15:31:06.161Z,81.98
2023-04-05T15:33:34.510Z,83.12
2023-04-05T15:36:03.325Z,83.73
2023-04-05T15:38:32.612Z,84.14
2023-04-05T15:41:00.881Z,85.36
2023-04-05T15:43:31.256Z,85.83
2023-04-05T15:45:59.605Z,86.75
2023-04-05T15:48:27.977Z,87.19
2023-04-05T15:50:56.359Z,87.32
2023-04-05T15:53:24.589Z,87.87
2023-04-05T15:55:53.643Z,88.25
2023-04-05T15:58:21.932Z,88.55
2023-04-05T16:00:50.442Z,89.18
2023-04-05T16:03:19.441Z,90.06
2023-04-05T16:05:47.993Z,90.61
2023-04-05T16:08:16.587Z,90.79
2023-04-05T16:10:45.092Z,91.96
2023-04-05T16:13:19.186Z,92.74
2023-04-05T16:15:49.205Z,93.22
2023-04-05T16:18:19.846Z,94.16
2023-04-05T16:20:51.017Z,94.53
2023-04-05T16:23:19.842Z,95.05
2023-04-05T16:25:48.433Z,95.58
2023-04-05T16:28:19.101Z,96.15
2023-04-05T16:30:48.336Z,96.04
2023-04-05T16:33:17.834Z,96.15
2023-04-05T16:35:48.884Z,97.03
2023-04-05T16:38:17.645Z,97.98
2023-04-05T16:40:46.050Z,97.99
2023-04-05T16:43:15.969Z,97.51
2023-04-05T16:45:45.277Z,97.44
2023-04-05T16:48:14.899Z,97.50
2023-04-05T16:50:43.089Z,97.45
2023-04-05T16:53:11.831Z,97.80
2023-04-05T16:55:40.627Z,97.57
2023-04-05T16:58:09.428Z,97.57
2023-04-05T17:00:38.831Z,97.96
2023-04-05T17:03:17.652Z,98.41
2023-04-05T17:05:46.960Z,97.76
2023-04-05T17:08:16.510Z,97.71
2023-04-05T17:10:44.763Z,97.57
2023-04-05T17:13:14.976Z,98.02
2023-04-05T17:15:44.734Z,98.05
2023-04-05T17:18:13.082Z,98.18
2023-04-05T17:20:41.251Z,97.88
2023-04-05T17:23:09.624Z,98.14
2023-04-05T17:25:37.903Z,98.15
2023-04-05T17:28:07.307Z,98.27
2023-04-05T17:30:36.203Z,97.98
2023-04-05T17:33:05.344Z,97.43
2023-04-05T17:35:33.918Z,97.93
2023-04-05T17:38:03.706Z,98.21
2023-04-05T17:40:32.759Z,98.46
2023-04-05T17:43:01.412Z,99.05
2023-04-05T17:45:29.780Z,99.19
2023-04-05T17:47:59.474Z,99.72
2023-04-05T17:50:29.410Z,99.78
2023-04-05T17:52:58.200Z,100.00
2023-04-05T17:55:26.570Z,100.00
2023-04-05T17:57:55.038Z,100.00
2023-04-05T18:00:23.780Z,100.00
2023-04-05T18:02:52.394Z,100.00
2023-04-05T18:05:21.050Z,100.00
2023-04-05T18:07:49.338Z,100.00
2023-04-05T18:10:17.961Z,100.00
2023-04-05T18:12:46.712Z,100.00
2023-04-05T18:15:18.409Z,100.00
2023-04-05T18:17:47.493Z,100.00
2023-04-05T18:20:16.559Z,100.00
2023-04-05T18:22:47.008Z,100.00
2023-04-05T18:25:15.681Z,100.00
2023-04-05T18:27:44.268Z,100.00
2023-04-05T18:30:14.187Z,100.00
2023-04-05T18:32:43.201Z,100.00
2023-04-05T18:35:11.891Z,100.00
2023-04-05T18:37:44.057Z,100.00
2023-04-05T18:40:12.429Z,100.00
2023-04-05T18:42:45.511Z,100.00
2023-04-05T18:45:14.164Z,100.00
2023-04-05T18:47:42.536Z,100.00
2023-04-05T18:50:11.504Z,100.00
2023-04-05T18:52:39.827Z,100.00
2023-04-05T18:55:08.964Z,100.00
2023-04-05T18:57:37.233Z,100.00
2023-04-05T19:00:08.949Z,100.00
2023-04-05T19:02:38.237Z,100.00
2023-04-05T19:05:07.340Z,100.00
2023-04-05T19:07:35.826Z,100.00
2023-04-05T19:10:05.056Z,100.00
2023-04-05T19:12:33.697Z,100.00
2023-04-05T19:15:04.320Z,100.00
2023-04-05T19:17:33.286Z,100.00
2023-04-05T19:20:01.469Z,100.00
2023-04-05T19:22:31.316Z,100.00
2023-04-05T19:25:01.270Z,99.96
2023-04-05T19:27:35.562Z,99.93
2023-04-05T19:30:04.420Z,99.57
2023-04-05T19:32:34.194Z,99.01
2023-04-05T19:35:02.856Z,98.76
2023-04-05T19:37:32.568Z,98.91
2023-04-05T19:40:01.870Z,98.93
2023-04-05T19:42:30.453Z,98.72
2023-04-05T19:44:59.565Z,98.61
2023-04-05T19:47:27.900Z,98.35
2023-04-05T19:49:57.134Z,98.68
2023-04-05T19:52:43.795Z,99.07
2023-04-05T19:55:31.969Z,99.53
2023-04-05T19:58:01.822Z,99.37
2023-04-05T20:00:36.343Z,99.64
2023-04-05T20:03:32.344Z,99.73
2023-04-05T20:06:11.291Z,99.78
2023-04-05T20:08:45.207Z,99.61
2023-04-05T20:11:16.218Z,99.33
2023-04-05T20:13:50.898Z,99.30
2023-04-05T20:16:32.255Z,99.06
2023-04-05T20:19:12.690Z,98.89
2023-04-05T20:21:42.279Z,98.82
2023-04-05T20:24:12.641Z,98.75
2023-04-05T20:26:46.148Z,98.48
2023-04-05T20:29:16.236Z,98.46
2023-04-05T20:31:44.404Z,98.42
2023-04-05T20:34:27.971Z,98.30
2023-04-05T20:37:01.965Z,98.20
2023-04-05T20:39:31.182Z,97.93
2023-04-05T20:42:00.409Z,97.93
2023-04-05T20:44:30.526Z,97.63
2023-04-05T20:46:59.092Z,97.78
2023-04-05T20:49:28.194Z,98.14
2023-04-05T20:51:57.818Z,97.94
2023-04-05T20:54:26.994Z,97.52
2023-04-05T20:56:58.482Z,97.25
2023-04-05T20:59:27.586Z,97.28
2023-04-05T21:01:56.228Z,97.59
2023-04-05T21:04:24.908Z,97.68
2023-04-05T21:06:53.294Z,97.54
2023-04-05T21:09:21.889Z,97.42
2023-04-05T21:11:49.987Z,97.49
2023-04-05T21:14:18.240Z,97.75
2023-04-05T21:16:46.718Z,97.82
2023-04-05T21:19:15.099Z,97.72
2023-04-05T21:21:43.702Z,97.54
2023-04-05T21:24:12.073Z,97.39
2023-04-05T21:26:40.361Z,97.46
2023-04-05T21:29:09.667Z,97.27
2023-04-05T21:31:38.989Z,96.93
2023-04-05T21:34:07.397Z,96.66
2023-04-05T21:36:39.212Z,96.53
2023-04-05T21:39:07.981Z,96.49
2023-04-05T21:41:37.005Z,96.65
2023-04-05T21:44:06.337Z,96.85
2023-04-05T21:46:35.221Z,96.78
2023-04-05T21:49:03.601Z,96.52
2023-04-05T21:51:32.995Z,96.06
2023-04-05T21:54:01.170Z,96.03
2023-04-05T21:56:32.868Z,95.98
2023-04-05T21:59:01.173Z,95.85
2023-04-05T22:01:29.703Z,95.59
2023-04-05T22:03:58.896Z,95.86
2023-04-05T22:06:27.403Z,95.96
2023-04-05T22:08:55.759Z,95.76
2023-04-05T22:11:25.175Z,95.60
2023-04-05T22:13:54.989Z,95.62
2023-04-05T22:16:23.331Z,95.64
2023-04-05T22:18:51.957Z,95.71
2023-04-05T22:21:20.615Z,95.46
2023-04-05T22:23:49.031Z,95.36
2023-04-05T22:26:17.438Z,95.17
2023-04-05T22:28:45.585Z,95.46
2023-04-05T22:31:14.958Z,95.64
2023-04-05T22:33:44.301Z,95.54
2023-04-05T22:36:13.183Z,95.52
2023-04-05T22:38:43.758Z,95.76
2023-04-05T22:41:13.038Z,95.82
2023-04-05T22:43:41.336Z,95.78
2023-04-05T22:46:10.603Z,95.54
2023-04-05T22:48:38.952Z,95.51
2023-04-05T22:51:08.419Z,95.48
2023-04-05T22:53:36.689Z,95.51
2023-04-05T22:56:11.312Z,95.59
2023-04-05T22:58:40.718Z,95.71
2023-04-05T23:01:13.146Z,95.78
2023-04-05T23:03:41.785Z,95.73
2023-04-05T23:06:10.303Z,95.52
2023-04-05T23:08:38.718Z,95.48
2023-04-05T23:11:09.592Z,95.73
2023-04-05T23:13:40.640Z,96.31
2023-04-05T23:16:08.823Z,96.94
2023-04-05T23:18:39.861Z,96.91
2023-04-05T23:21:09.267Z,97.15
2023-04-05T23:23:37.545Z,97.20
2023-04-05T23:26:06.062Z,97.54
2023-04-05T23:28:34.393Z,97.38
2023-04-05T23:31:03.044Z,97.41
2023-04-05T23:33:34.047Z,97.38
2023-04-05T23:36:02.812Z,97.26
2023-04-05T23:38:32.999Z,97.58
2023-04-05T23:41:01.652Z,97.64
2023-04-05T23:43:29.934Z,98.05
2023-04-05T23:45:58.419Z,97.81
2023-04-05T23:48:29.090Z,98.04
2023-04-05T23:50:57.859Z,98.09
2023-04-05T23:53:26.133Z,97.83
2023-04-05T23:55:56.921Z,97.87
2023-04-05T23:58:25.657Z,97.59
